createdAt,value
2017-11-17T21:29:56.143Z,91.30
2017-11-17T21:30:28.688Z,91.70
2017-11-17T21:31:01.257Z,92.00
2017-11-17T21:31:33.910Z,92.30
2017-11-17T21:32:06.590Z,92.40
2017-11-17T21:32:39.122Z,92.60
2017-11-17T21:33:11.849Z,92.20
2017-11-17T21:33:44.421Z,92.00
2017-11-17T21:34:16.951Z,91.90
2017-11-17T21:34:49.477Z,91.70
2017-11-17T21:35:22.035Z,91.70
2017-11-17T21:35:54.554Z,91.70
2017-11-17T21:36:27.093Z,91.60
2017-11-17T21:36:59.623Z,91.60
2017-11-17T21:37:32.140Z,91.70
2017-11-17T21:38:04.668Z,91.70
2017-11-17T21:38:37.205Z,91.70
2017-11-17T21:39:10.105Z,91.70
2017-11-17T21:39:42.893Z,91.70
2017-11-17T21:40:15.435Z,91.70
2017-11-17T21:40:47.953Z,91.60
2017-11-17T21:41:20.461Z,91.60
2017-11-17T21:41:53.012Z,91.60
2017-11-17T21:42:25.524Z,91.60
2017-11-17T21:42:58.043Z,91.90
2017-11-17T21:43:30.647Z,91.60
2017-11-17T21:44:03.442Z,91.70
2017-11-17T21:44:36.053Z,91.60
2017-11-17T21:45:08.597Z,91.60
2017-11-17T21:45:41.128Z,91.60
2017-11-17T21:46:13.743Z,91.60
2017-11-17T21:46:46.617Z,91.70
2017-11-17T21:47:19.136Z,91.70
2017-11-17T21:47:51.683Z,91.70
2017-11-17T21:48:24.897Z,91.70
2017-11-17T21:48:57.786Z,91.70
2017-11-17T21:49:30.321Z,91.70
2017-11-17T21:50:03.662Z,91.60
2017-11-17T21:50:36.189Z,91.60
2017-11-17T21:51:08.716Z,91.60
2017-11-17T21:51:41.257Z,91.60
2017-11-17T21:52:13.774Z,91.60
2017-11-17T21:52:46.316Z,91.70
2017-11-17T21:53:19.083Z,91.60
2017-11-17T21:53:51.635Z,91.60
2017-11-17T21:54:24.926Z,91.60
2017-11-17T21:54:57.531Z,91.60
2017-11-17T21:55:30.063Z,91.60
2017-11-17T21:56:02.631Z,91.60
2017-11-17T21:56:35.401Z,91.60
2017-11-17T21:57:07.934Z,91.70
2017-11-17T21:57:40.490Z,91.60
2017-11-17T21:58:13.124Z,91.60
2017-11-17T21:58:45.658Z,91.60
2017-11-17T21:59:18.199Z,91.60
2017-11-17T21:59:50.772Z,91.70
2017-11-17T22:00:23.299Z,91.60
2017-11-17T22:00:55.842Z,91.60
2017-11-17T22:01:29.111Z,91.60
2017-11-17T22:02:01.680Z,91.60
2017-11-17T22:02:34.236Z,91.60
2017-11-17T22:03:06.747Z,91.60
2017-11-17T22:03:39.283Z,91.70
2017-11-17T22:04:11.808Z,91.70
2017-11-17T22:04:45.116Z,91.50
2017-11-17T22:05:17.656Z,91.50
2017-11-17T22:05:50.180Z,91.40
2017-11-17T22:06:22.711Z,91.40
2017-11-17T22:06:55.276Z,91.50
2017-11-17T22:07:27.813Z,91.60
2017-11-17T22:08:00.480Z,91.70
2017-11-17T22:08:33.021Z,91.60
2017-11-17T22:09:05.545Z,91.40
2017-11-17T22:09:38.089Z,91.50
2017-11-17T22:10:10.758Z,91.60
2017-11-17T22:10:43.285Z,91.70
2017-11-17T22:11:15.862Z,91.80
2017-11-17T22:11:48.447Z,91.80
2017-11-17T22:12:20.977Z,91.80
2017-11-17T22:12:53.513Z,91.90
2017-11-17T22:13:26.030Z,92.00
2017-11-17T22:13:58.556Z,92.10
2017-11-17T22:14:31.086Z,92.00
2017-11-17T22:15:03.624Z,91.80
2017-11-17T22:15:36.149Z,91.80
2017-11-17T22:16:08.675Z,91.70
2017-11-17T22:16:41.204Z,91.70
2017-11-17T22:17:13.758Z,91.60
2017-11-17T22:17:46.275Z,91.70
2017-11-17T22:18:18.801Z,91.70
2017-11-17T22:18:51.405Z,91.70
2017-11-17T22:19:24.152Z,91.70
2017-11-17T22:19:56.711Z,91.80
2017-11-17T22:20:29.230Z,91.80
2017-11-17T22:21:01.769Z,91.80
2017-11-17T22:21:34.464Z,91.70
2017-11-17T22:22:07.759Z,91.90
2017-11-17T22:22:40.336Z,91.80
2017-11-17T22:23:12.862Z,91.80
2017-11-17T22:23:45.415Z,91.70
2017-11-17T22:24:18.407Z,91.70
2017-11-17T22:24:50.937Z,91.70
2017-11-17T22:25:23.467Z,91.90
2017-11-17T22:25:55.994Z,91.90
2017-11-17T22:26:28.575Z,91.90
2017-11-17T22:27:01.128Z,91.80
2017-11-17T22:27:33.643Z,91.80
2017-11-17T22:28:06.186Z,91.90
2017-11-17T22:28:38.724Z,92.10
2017-11-17T22:29:12.138Z,92.40
2017-11-17T22:29:44.707Z,92.30
2017-11-17T22:30:17.271Z,92.30
2017-11-17T22:30:49.797Z,92.20
2017-11-17T22:31:22.323Z,92.10
2017-11-17T22:31:54.846Z,92.00
2017-11-17T22:32:27.369Z,91.80
2017-11-17T22:32:59.885Z,91.80
2017-11-17T22:33:33.536Z,91.70
2017-11-17T22:34:06.077Z,91.70
2017-11-17T22:34:38.600Z,91.80
2017-11-17T22:35:11.267Z,91.80
2017-11-17T22:35:44.041Z,91.80
2017-11-17T22:36:16.586Z,91.80
2017-11-17T22:36:49.159Z,92.20
2017-11-17T22:37:21.672Z,92.40
2017-11-17T22:37:54.193Z,92.40
2017-11-17T22:38:26.710Z,92.60
2017-11-17T22:38:59.240Z,92.20
2017-11-17T22:39:31.805Z,92.20
2017-11-17T22:40:04.339Z,92.20
2017-11-17T22:40:36.862Z,92.20
2017-11-17T22:41:09.433Z,92.30
2017-11-17T22:41:42.039Z,92.30
2017-11-17T22:42:14.600Z,92.20
2017-11-17T22:42:47.165Z,92.20
2017-11-17T22:43:19.693Z,92.30
2017-11-17T22:43:52.291Z,92.30
2017-11-17T22:44:24.832Z,92.30
2017-11-17T22:44:57.421Z,92.20
2017-11-17T22:45:29.941Z,92.10
2017-11-17T22:46:02.470Z,92.10
2017-11-17T22:46:35.111Z,92.00
2017-11-17T22:47:07.626Z,92.00
2017-11-17T22:47:40.140Z,92.10
2017-11-17T22:48:12.662Z,92.30
2017-11-17T22:48:45.192Z,92.40
2017-11-17T22:49:17.739Z,92.40
2017-11-17T22:49:50.273Z,92.60
2017-11-17T22:50:22.804Z,92.70
2017-11-17T22:50:55.351Z,92.60
2017-11-17T22:51:27.890Z,92.60
2017-11-17T22:52:00.425Z,92.80
2017-11-17T22:52:32.950Z,92.90
2017-11-17T22:53:05.480Z,92.60
2017-11-17T22:53:38.137Z,92.50
2017-11-17T22:54:10.701Z,92.30
2017-11-17T22:54:43.231Z,92.20
2017-11-17T22:55:15.995Z,92.10
2017-11-17T22:55:48.632Z,92.20
2017-11-17T22:56:21.173Z,92.10
2017-11-17T22:56:53.700Z,92.10
2017-11-17T22:57:26.234Z,92.20
2017-11-17T22:57:58.760Z,92.10
2017-11-17T22:58:31.270Z,92.00
2017-11-17T22:59:03.784Z,92.00
2017-11-17T22:59:36.305Z,92.00
2017-11-17T23:00:08.861Z,92.10
2017-11-17T23:00:41.481Z,92.10
2017-11-17T23:01:14.248Z,92.10
2017-11-17T23:01:46.776Z,92.00
2017-11-17T23:02:20.914Z,92.00
2017-11-17T23:02:53.534Z,92.10
2017-11-17T23:03:26.061Z,92.40
2017-11-17T23:03:58.602Z,92.40
2017-11-17T23:04:31.128Z,92.30
2017-11-17T23:05:03.676Z,92.20
2017-11-17T23:05:36.223Z,92.20
2017-11-17T23:06:08.767Z,92.20
2017-11-17T23:06:41.329Z,92.10
2017-11-17T23:07:13.851Z,91.90
2017-11-17T23:07:47.245Z,91.70
2017-11-17T23:08:20.626Z,91.70
2017-11-17T23:08:53.284Z,91.70
2017-11-17T23:09:25.789Z,91.70
2017-11-17T23:09:58.324Z,91.80
2017-11-17T23:10:31.001Z,91.90
2017-11-17T23:11:03.760Z,91.90
2017-11-17T23:11:36.439Z,91.80
2017-11-17T23:12:09.009Z,91.90
2017-11-17T23:12:41.569Z,91.90
2017-11-17T23:13:14.791Z,92.10
2017-11-17T23:13:47.320Z,92.10
2017-11-17T23:14:19.832Z,92.00
2017-11-17T23:14:52.383Z,91.90
2017-11-17T23:15:25.206Z,91.80
2017-11-17T23:15:57.735Z,91.80
2017-11-17T23:16:30.253Z,91.70
2017-11-17T23:17:02.962Z,91.70
2017-11-17T23:17:36.152Z,91.70
2017-11-17T23:18:08.688Z,91.80
2017-11-17T23:18:41.431Z,91.80
2017-11-17T23:19:14.084Z,91.80
2017-11-17T23:19:46.617Z,91.70
2017-11-17T23:20:20.657Z,91.70
2017-11-17T23:20:53.652Z,91.60
2017-11-17T23:21:26.297Z,91.70
2017-11-17T23:21:59.147Z,91.80
2017-11-17T23:22:35.025Z,92.00
2017-11-17T23:23:07.934Z,91.90
2017-11-17T23:23:44.864Z,91.90
2017-11-17T23:24:17.504Z,91.90
2017-11-17T23:24:50.030Z,91.80
2017-11-17T23:25:22.608Z,91.80
2017-11-17T23:25:55.125Z,91.70
2017-11-17T23:26:27.852Z,91.80
2017-11-17T23:27:00.484Z,91.80
2017-11-17T23:27:33.784Z,91.80
2017-11-17T23:28:06.320Z,91.80
2017-11-17T23:28:38.852Z,91.90
2017-11-17T23:29:11.359Z,91.90
2017-11-17T23:29:44.658Z,92.00
2017-11-17T23:30:20.412Z,91.90
2017-11-17T23:30:55.312Z,92.00
2017-11-17T23:31:30.453Z,92.00
2017-11-17T23:32:04.156Z,92.00
2017-11-17T23:32:38.334Z,92.00
2017-11-17T23:33:11.051Z,91.90
2017-11-17T23:33:44.577Z,91.90
2017-11-17T23:34:18.104Z,91.90
2017-11-17T23:34:50.833Z,91.90
2017-11-17T23:35:24.123Z,91.90
2017-11-17T23:35:57.381Z,91.90
2017-11-17T23:36:29.909Z,91.80
2017-11-17T23:37:02.422Z,91.80
2017-11-17T23:37:35.135Z,91.80
2017-11-17T23:38:10.128Z,91.80
2017-11-17T23:38:42.651Z,91.80
2017-11-17T23:39:15.284Z,91.80
2017-11-17T23:39:48.830Z,91.80
2017-11-17T23:40:21.962Z,91.80
2017-11-17T23:40:54.490Z,91.90
2017-11-17T23:41:27.082Z,91.80
2017-11-17T23:42:00.865Z,91.80
2017-11-17T23:42:34.847Z,91.90
2017-11-17T23:43:07.525Z,91.90
2017-11-17T23:43:41.585Z,91.90
2017-11-17T23:44:14.728Z,91.90
2017-11-17T23:44:47.255Z,91.90
2017-11-17T23:45:19.933Z,91.90
2017-11-17T23:45:54.093Z,91.90
2017-11-17T23:46:27.426Z,92.00
2017-11-17T23:47:00.911Z,91.90
2017-11-17T23:47:33.876Z,91.90
2017-11-17T23:48:06.669Z,92.00
2017-11-17T23:48:39.567Z,91.90
2017-11-17T23:49:17.138Z,91.90
2017-11-17T23:50:03.176Z,92.00
2017-11-17T23:50:35.788Z,92.00
2017-11-17T23:51:09.078Z,92.00
2017-11-17T23:51:49.411Z,92.00
2017-11-17T23:52:22.235Z,92.00
2017-11-17T23:52:57.393Z,92.00
2017-11-17T23:53:31.667Z,92.00
2017-11-17T23:54:04.379Z,92.00
2017-11-17T23:54:37.666Z,91.90
2017-11-17T23:55:10.205Z,91.90
2017-11-17T23:55:42.719Z,91.90
2017-11-17T23:56:15.247Z,91.90
2017-11-17T23:56:48.572Z,92.00
2017-11-17T23:57:21.101Z,91.80
2017-11-17T23:57:54.831Z,91.80
2017-11-17T23:58:29.903Z,91.90
2017-11-17T23:59:02.450Z,91.90
2017-11-17T23:59:35.049Z,91.90
